Home > Products > Valid Products > TAF

000
FTUS41 KGYX 310520
TAFPWM
TAF
KPWM 310520Z 3106/0106 33003KT P6SM SKC
     FM311400 03005KT P6SM SCT100 BKN200
     FM311800 10007KT P6SM BKN050
     FM312100 04005KT P6SM OVC050=



000
FTUS41 KGYX 310520
TAFCON
TAF
KCON 310520Z 3106/0106 VRB03KT P6SM OVC050=



000
FTUS41 KGYX 310520
TAFAUG
TAF
KAUG 310520Z 3106/0106 VRB03KT P6SM SCT050
     FM311400 35004KT P6SM SCT100 SCT200
     FM311700 06004KT P6SM OVC050=



000
FTUS41 KGYX 310520
TAFPSM
TAF
KPSM 310520Z 3106/0106 VRB03KT P6SM BKN050
     FM311700 09006KT P6SM OVC050=



000
FTUS41 KGYX 310520
TAFLEB
TAF
KLEB 310520Z 3106/0106 VRB03KT P6SM OVC040=



000
FTUS41 KGYX 302322
TAFPWM
TAF
KPWM 302322Z 3100/3124 33004KT P6SM SCT200
     FM311400 02006KT P6SM BKN200
     FM311800 09007KT P6SM BKN050=



000
FTUS41 KGYX 302322
TAFCON
TAF
KCON 302322Z 3100/3124 VRB03KT P6SM BKN060
     FM310500 VRB03KT P6SM SCT060
     FM311500 05005KT P6SM BKN200
     FM311800 10007KT P6SM BKN050=



000
FTUS41 KGYX 302322
TAFAUG
TAF
KAUG 302322Z 3100/3124 33005KT P6SM FEW035
     FM311400 02007KT P6SM SCT200
     FM312000 06004KT P6SM BKN050=



000
FTUS41 KGYX 302322
TAFPSM
TAF
KPSM 302322Z 3100/3124 33005KT P6SM SCT200
     FM311400 04006KT P6SM BKN200
     FM311800 09007KT P6SM BKN050=



000
FTUS41 KGYX 302322
TAFLEB
TAF
KLEB 302322Z 3100/3124 VRB03KT P6SM BKN050
     FM311600 12007KT P6SM BKN050=



000
FTUS41 KGYX 301732
TAFAUG
TAF
KAUG 301732Z 3018/3118 33005KT P6SM FEW035
     FM311400 02007KT P6SM SCT200=



000
FTUS41 KGYX 301732
TAFPSM
TAF
KPSM 301732Z 3018/3118 29009KT P6SM SCT040
     FM302300 33005KT P6SM SCT200
     FM311400 04006KT P6SM BKN200=



000
FTUS41 KGYX 301732
TAFLEB
TAF
KLEB 301732Z 3018/3118 29005KT P6SM -SHRA FEW025 OVC070
     FM302200 VRB03KT P6SM BKN080=



000
FTUS41 KGYX 301732
TAFCON
TAF
KCON 301732Z 3018/3118 32006KT P6SM SCT035 BKN080
     FM302200 VRB03KT P6SM SCT200
     FM311500 05005KT P6SM BKN200=



000
FTUS41 KGYX 301732
TAFPWM
TAF
KPWM 301732Z 3018/3118 30007KT P6SM SCT040 BKN080
     FM302300 33004KT P6SM SCT200
     FM311400 02006KT P6SM BKN200=



000
FTUS41 KGYX 301732
TAFAUG
TAF
KAUG 301732Z 3018/3118 33005KT P6SM FEW035
     FM311400 02007KT P6SM SCT200=



000
FTUS41 KGYX 301732
TAFLEB
TAF
KLEB 301732Z 3018/3118 29005KT P6SM -SHRA FEW025 OVC070
     FM302200 VRB03KT P6SM BKN080=



000
FTUS41 KGYX 301732
TAFCON
TAF
KCON 301732Z 3018/3118 32006KT P6SM SCT035 BKN080
     FM302200 VRB03KT P6SM SCT200
     FM311500 05005KT P6SM BKN200=



000
FTUS41 KGYX 301732
TAFPWM
TAF
KPWM 301732Z 3018/3118 30007KT P6SM SCT040 BKN080
     FM302300 33004KT P6SM SCT200
     FM311400 02006KT P6SM BKN200=



000
FTUS41 KGYX 301732
TAFPSM
TAF
KPSM 301732Z 3018/3118 29009KT P6SM SCT040
     FM302300 33005KT P6SM SCT200
     FM311400 04006KT P6SM BKN200=



000
FTUS41 KGYX 301512 AAA
TAFPWM
TAF AMD
KPWM 301512Z 3015/3112 29008KT P6SM SCT050 BKN080
     FM302200 33005KT P6SM FEW050=



000
FTUS41 KGYX 301218 AAA
TAFCON
TAF AMD
KCON 301218Z 3012/3112 31006KT P6SM BKN080
     FM302200 VRB03KT P6SM SCT200=



000
FTUS41 KGYX 301120
TAFPWM
TAF
KPWM 301120Z 3012/3112 00000KT P6SM FEW250
     FM301400 30010KT P6SM SCT050 SCT100=



000
FTUS41 KGYX 301120
TAFAUG
TAF
KAUG 301120Z 3012/3112 21004KT P6SM SKC
     FM301300 32008KT P6SM SCT050 SCT100=



000
FTUS41 KGYX 301120
TAFCON
TAF
KCON 301120Z 3012/3112 00000KT 2SM BR SCT080
     FM301300 30007KT P6SM BKN050
     FM302200 30007KT P6SM SCT045 BKN100=



000
FTUS41 KGYX 301120
TAFPSM
TAF
KPSM 301120Z 3012/3112 25007KT P6SM FEW200
     FM302300 28007KT P6SM SCT050 SCT100=



000
FTUS41 KGYX 301120
TAFLEB
TAF
KLEB 301120Z 3012/3112 00000KT P6SM OVC070
     FM301300 32005KT P6SM BKN050 BKN100=



000
FTUS41 KGYX 300855 AAA
TAFPWM
TAF AMD
KPWM 300855Z 3009/3106 00000KT 2SM BR SKC
     FM301200 28005KT P6SM SKC
     FM301400 30010KT P6SM SCT050 SCT100=



000
FTUS41 KGYX 300855 AAA
TAFAUG
TAF AMD
KAUG 300855Z 3009/3106 20003KT P6SM SKC
     FM301300 32008KT P6SM SCT050 SCT100=



000
FTUS41 KGYX 300855 AAA
TAFPSM
TAF AMD
KPSM 300855Z 3009/3106 24005KT P6SM SKC
     FM302300 28007KT P6SM SCT050 SCT100=



000
FTUS41 KGYX 300855 AAB
TAFCON
TAF AMD
KCON 300855Z 3009/3106 00000KT 3/4SM BR VV002
     FM301300 00000KT P6SM SKC
     FM301400 30007KT P6SM SCT050 SCT100
     FM310200 30007KT P6SM SCT045 BKN100=



000
FTUS41 KGYX 300855 AAA
TAFLEB
TAF AMD
KLEB 300855Z 3009/3106 00000KT P6SM FEW001 OVC080
     FM301300 32005KT P6SM BKN050 BKN100=



000
FTUS41 KGYX 300618 AAA
TAFCON
TAF AMD
KCON 300618Z 3006/3106 00000KT 3/4SM BR SKC
      TEMPO 3006/3008 1/2SM FG VV002
     FM300800 00000KT 1/2SM FG VV002
     FM301300 00000KT P6SM SKC
     FM301400 30007KT P6SM SCT050 SCT100
     FM310200 30007KT P6SM SCT045 BKN100=



000
FTUS41 KGYX 300526
TAFPWM
TAF
KPWM 300526Z 3006/3106 28005KT 5SM BR SKC
     FM301200 28005KT P6SM SKC
     FM301400 30010KT P6SM SCT050 SCT100=



000
FTUS41 KGYX 300526
TAFAUG
TAF
KAUG 300526Z 3006/3106 29004KT P6SM SCT050
     FM301300 32008KT P6SM SCT050 SCT100=



000
FTUS41 KGYX 300526
TAFLEB
TAF
KLEB 300526Z 3006/3106 00000KT P6SM SKC
     FM300800 VRB03KT 1/4SM FG OVC001
     FM301300 32005KT P6SM BKN050 BKN100=



000
FTUS41 KGYX 300526
TAFCON
TAF
KCON 300526Z 3006/3106 00000KT P6SM SKC
     FM300900 00000KT 2SM BR SCT003
     FM301200 00000KT P6SM SKC
     FM301400 30007KT P6SM SCT050 SCT100
     FM310200 30007KT P6SM SCT045 BKN100=



000
FTUS41 KGYX 300526
TAFPSM
TAF
KPSM 300526Z 3006/3106 28008KT P6SM SKC
     FM302300 28007KT P6SM SCT050 SCT100=



000
FTUS41 KGYX 292320
TAFAUG
TAF
KAUG 292320Z 3000/3024 27005KT P6SM -RA OVC050
     FM300400 27004KT P6SM OVC080
     FM301300 32008KT P6SM SCT050=



000
FTUS41 KGYX 292320
TAFPWM
TAF
KPWM 292320Z 3000/3024 27006KT P6SM -RA OVC050
     FM300300 28005KT P6SM BKN100
     FM301400 30010KT P6SM SCT050 SCT250=



000
FTUS41 KGYX 292320
TAFPSM
TAF
KPSM 292320Z 3000/3024 28006KT P6SM -RA OVC050
     FM300300 28006KT P6SM OVC100
     FM301200 28010KT P6SM SCT250=



000
FTUS41 KGYX 292320
TAFCON
TAF
KCON 292320Z 3000/3024 27004KT P6SM OVC080
      TEMPO 3000/3001 6SM -RA OVC040
     FM301400 30007KT P6SM SCT050 SCT250=



000
FTUS41 KGYX 292320
TAFLEB
TAF
KLEB 292320Z 3000/3024 23004KT P6SM OVC050
     FM300900 VRB03KT 1/2SM FG OVC001
     FM301300 32005KT P6SM BKN050=



000
FTUS41 KGYX 292252 AAA
TAFPWM
TAF AMD
KPWM 292252Z 2923/3018 27010KT P6SM -SHRA OVC035
     FM300100 27005KT P6SM SCT040 BKN200
     FM301300 29008KT P6SM SCT050=



000
FTUS41 KGYX 292252 AAA
TAFPWM
TAF AMD
KPWM 292252Z 2923/3018 27010KT P6SM -SHRA OVC035
     FM300100 27005KT P6SM SCT040 BKN200
     FM301300 29008KT P6SM SCT050=



000
FTUS41 KGYX 291736
TAFPWM
TAF
KPWM 291736Z 2918/3018 24005KT P6SM SCT010 BKN060
     FM292000 26007KT P6SM -SHRA OVC035
     FM300100 27004KT P6SM SCT040 BKN200
     FM301300 29008KT P6SM SCT050=



000
FTUS41 KGYX 291736
TAFAUG
TAF
KAUG 291736Z 2918/3018 23005KT P6SM -SHRA SCT008 OVC060
      TEMPO 2918/2919 BKN005
     FM292100 28007KT P6SM -SHRA BKN035
     FM300300 28004KT P6SM SCT040 BKN200
     FM301300 30008KT P6SM SCT050=



000
FTUS41 KGYX 291736
TAFPSM
TAF
KPSM 291736Z 2918/3018 26006KT P6SM -SHRA OVC004
     FM292100 28006KT P6SM OVC025
     FM300000 27005KT P6SM SCT040 BKN200
     FM301400 31008KT P6SM SCT050=



000
FTUS41 KGYX 291736
TAFCON
TAF
KCON 291736Z 2918/3018 28005KT P6SM -SHRA SCT035 OVC060
     FM292300 VRB03KT P6SM SCT040 BKN200
     FM301400 31007KT P6SM SCT050=



000
FTUS41 KGYX 291736
TAFLEB
TAF
KLEB 291736Z 2918/3018 VRB03KT 3SM -SHRA BR SCT004 OVC040
      TEMPO 2918/2920 1SM SHRA BR BKN004
     FM292200 VRB03KT P6SM BKN040
     FM300800 00000KT 2SM BR BKN003
     FM301300 32006KT P6SM BKN040=



000
FTUS41 KGYX 291611 AAB
TAFPSM
TAF AMD
KPSM 291611Z 2916/3012 27006KT 2SM BR OVC004
     FM291800 27007KT 5SM -SHRA BR OVC020
     FM292300 27004KT P6SM SCT040 BKN200=



000
FTUS41 KGYX 291609 AAA
TAFAUG
TAF AMD
KAUG 291609Z 2916/3012 23005KT P6SM -SHRA OVC005
     FM292000 27007KT P6SM -SHRA BKN030
     FM300200 28004KT P6SM SCT040 BKN200=



000
FTUS41 KGYX 291606 AAA
TAFPWM
TAF AMD
KPWM 291606Z 2916/3012 23005KT P6SM OVC008
     FM291900 26008KT P6SM -SHRA OVC035
     FM300100 27004KT P6SM SCT050 BKN200=



000
FTUS41 KGYX 291359 AAA
TAFPSM
TAF AMD
KPSM 291359Z 2914/3012 VRB03KT 1SM BR OVC002
     FM291500 27007KT P6SM OVC015
     FM292000 28007KT P6SM BKN035
     FM300200 27004KT P6SM SCT060 BKN200=



000
FTUS41 KGYX 291331 AAA
TAFLEB
TAF AMD
KLEB 291331Z 2914/3012 VRB03KT P6SM -SHRA OVC003
     FM291700 28006KT P6SM -SHRA OVC035
     FM292200 26003KT P6SM BKN050
     FM300800 00000KT 2SM BR BKN003=



000
FTUS41 KGYX 291121
TAFAUG
TAF
KAUG 291121Z 2912/3012 30003KT 1/4SM FG VV002
     FM291400 21002KT 3SM BR OVC005
     FM291600 21003KT P6SM -SHRA BKN035
     FM292100 25007KT P6SM BKN050
     FM300000 26007KT P6SM BKN250=



000
FTUS41 KGYX 291121
TAFCON
TAF
KCON 291121Z 2912/3012 00000KT 1/4SM FG VV002
     FM291400 25002KT 5SM -SHRA BR OVC015
     FM291600 28004KT P6SM OVC050
     FM292100 28004KT P6SM BKN100
     FM300100 28004KT P6SM BKN250=



000
FTUS41 KGYX 291121
TAFPSM
TAF
KPSM 291121Z 2912/3012 29002KT 1/4SM FG VV001
     FM291400 25006KT 5SM BR OVC002
     FM291500 27007KT P6SM OVC035
     FM292100 27007KT P6SM BKN060
     FM300000 26007KT P6SM BKN250=



000
FTUS41 KGYX 291121
TAFLEB
TAF
KLEB 291121Z 2912/3012 20003KT P6SM -SHRA BKN010 OVC090
     FM291400 23004KT P6SM OVC050
     FM292100 28004KT P6SM BKN100
     FM300100 28004KT P6SM BKN250
     FM300700 28004KT P6SM BKN045=



000
FTUS41 KGYX 291121
TAFPWM
TAF
KPWM 291121Z 2912/3012 28004KT 1/2SM FG OVC002
     FM291400 24004KT 2SM BR OVC004
     FM291500 23006KT P6SM -SHRA BKN025
     FM292100 25007KT P6SM BKN050
     FM300000 26007KT P6SM BKN250=



000
FTUS41 KGYX 291052 AAC
TAFLEB
TAF AMD
KLEB 291052Z 2911/3006 17003KT P6SM -SHRA BKN010 OVC100
     FM291400 23004KT P6SM OVC050
     FM292100 28004KT P6SM BKN100
     FM300100 28004KT P6SM BKN250=



000
FTUS41 KGYX 291052 AAC
TAFLEB
TAF AMD
KLEB 291052Z 2911/3006 17003KT P6SM -SHRA BKN010 OVC100
     FM291400 23004KT P6SM OVC050
     FM292100 28004KT P6SM BKN100
     FM300100 28004KT P6SM BKN250=



000
FTUS41 KGYX 291050 AAC
TAFCON
TAF AMD
KCON 291050Z 2911/3006 00000KT 1/4SM FG VV002
     FM291400 25002KT 5SM -SHRA BR OVC015
     FM291600 28004KT P6SM OVC050
     FM292100 28004KT P6SM BKN100
     FM300100 28004KT P6SM BKN250=



000
FTUS41 KGYX 291050 AAC
TAFCON
TAF AMD
KCON 291050Z 2911/3006 00000KT 1/4SM FG VV002
     FM291400 25002KT 5SM -SHRA BR OVC015
     FM291600 28004KT P6SM OVC050
     FM292100 28004KT P6SM BKN100
     FM300100 28004KT P6SM BKN250=



000
FTUS41 KGYX 290849 AAB
TAFPWM
TAF AMD
KPWM 290849Z 2909/3006 28004KT 1/2SM FG VV002
     FM291300 24004KT 2SM BR OVC004
     FM291500 23006KT P6SM -SHRA BKN025
     FM292100 25007KT P6SM BKN050
     FM300000 26007KT P6SM BKN250=



000
FTUS41 KGYX 290849 AAB
TAFAUG
TAF AMD
KAUG 290849Z 2909/3006 36003KT 1/4SM FG VV002
     FM291300 21002KT 3SM BR OVC005
     FM291600 21003KT P6SM -SHRA BKN035
     FM292100 25007KT P6SM BKN050
     FM300000 26007KT P6SM BKN250=



000
FTUS41 KGYX 290849 AAB
TAFLEB
TAF AMD
KLEB 290849Z 2909/3006 00000KT P6SM BKN100
     FM291400 23004KT P6SM OVC050
     FM292100 28004KT P6SM BKN100
     FM300100 28004KT P6SM BKN250=



000
FTUS41 KGYX 290849 AAC
TAFPSM
TAF AMD
KPSM 290849Z 2909/3006 00000KT 1/4SM FG VV001
     FM291300 25006KT 5SM BR OVC002
     FM291500 27007KT P6SM OVC035
     FM292100 27007KT P6SM BKN060
     FM300000 26007KT P6SM BKN250=



000
FTUS41 KGYX 290849 AAB
TAFCON
TAF AMD
KCON 290849Z 2909/3006 00000KT 1/2SM FG VV003
     FM291300 25002KT 5SM -SHRA BR OVC015
     FM291600 28004KT P6SM OVC050
     FM292100 28004KT P6SM BKN100
     FM300100 28004KT P6SM BKN250=



000
FTUS41 KGYX 290704 AAB
TAFPSM
TAF AMD
KPSM 290704Z 2907/3006 01004KT 1/4SM FG VV001
     FM291300 25006KT 5SM BR OVC002
     FM291500 27007KT P6SM OVC035
     FM292100 27007KT P6SM BKN060
     FM300000 26007KT P6SM BKN250=



000
FTUS41 KGYX 290625 AAA
TAFPWM
TAF AMD
KPWM 290625Z 2906/3006 32003KT 3/4SM BR OVC002
     FM290800 23004KT 3SM BR OVC002
     FM291300 24004KT 2SM BR OVC004
     FM291500 23006KT P6SM -SHRA BKN025
     FM292100 25007KT P6SM BKN050
     FM300000 26007KT P6SM BKN250=



000
FTUS41 KGYX 290625 AAA
TAFAUG
TAF AMD
KAUG 290625Z 2906/3006 33004KT 3/4SM BR VV004
     FM290900 00000KT 3/4SM BR OVC002
     FM291300 21002KT 3SM BR OVC005
     FM291600 21003KT P6SM -SHRA BKN035
     FM292100 25007KT P6SM BKN050
     FM300000 26007KT P6SM BKN250=



000
FTUS41 KGYX 290625 AAA
TAFLEB
TAF AMD
KLEB 290625Z 2906/3006 00000KT P6SM SCT110
     FM290800 00000KT 1/4SM -SHRA FG OVC001
     FM291400 23004KT P6SM OVC050
     FM292100 28004KT P6SM BKN100
     FM300100 28004KT P6SM BKN250=



000
FTUS41 KGYX 290625 AAA
TAFPSM
TAF AMD
KPSM 290625Z 2906/3006 01004KT 1/2SM FG VV002
     FM291300 25006KT 5SM BR OVC002
     FM291500 27007KT P6SM OVC035
     FM292100 27007KT P6SM BKN060
     FM300000 26007KT P6SM BKN250=



000
FTUS41 KGYX 290625 AAA
TAFCON
TAF AMD
KCON 290625Z 2906/3006 04003KT 1SM BR OVC002
     FM290800 00000KT 1/4SM FG OVC001
     FM291300 25002KT 5SM -SHRA BR OVC015
     FM291600 28004KT P6SM OVC050
     FM292100 28004KT P6SM BKN100
     FM300100 28004KT P6SM BKN250=



000
FTUS41 KGYX 290520
TAFPWM
TAF
KPWM 290520Z 2906/3006 34004KT P6SM OVC004
     FM290800 23004KT 3SM BR OVC002
     FM291300 24004KT 2SM BR OVC004
     FM291500 23006KT P6SM -SHRA BKN025
     FM292100 25007KT P6SM BKN050
     FM300000 26007KT P6SM BKN250=



000
FTUS41 KGYX 290520
TAFCON
TAF
KCON 290520Z 2906/3006 00000KT P6SM OVC004
     FM290900 00000KT 1/4SM FG OVC001
     FM291300 25002KT 5SM -SHRA BR OVC015
     FM291600 28004KT P6SM OVC050
     FM292100 28004KT P6SM BKN100
     FM300100 28004KT P6SM BKN250=



000
FTUS41 KGYX 290520
TAFAUG
TAF
KAUG 290520Z 2906/3006 34003KT 4SM BR OVC006
     FM290900 00000KT 3/4SM BR OVC002
     FM291300 21002KT 3SM BR OVC005
     FM291600 21003KT P6SM -SHRA BKN035
     FM292100 25007KT P6SM BKN050
     FM300000 26007KT P6SM BKN250=



000
FTUS41 KGYX 290520
TAFLEB
TAF
KLEB 290520Z 2906/3006 00000KT P6SM SCT110
     FM290700 00000KT 1/4SM -SHRA FG OVC001
     FM291400 23004KT P6SM OVC050
     FM292100 28004KT P6SM BKN100
     FM300100 28004KT P6SM BKN250=



000
FTUS41 KGYX 290520
TAFPSM
TAF
KPSM 290520Z 2906/3006 31002KT 3/4SM BR OVC002
     FM291300 25006KT 5SM BR OVC002
     FM291500 27007KT P6SM OVC035
     FM292100 27007KT P6SM BKN060
     FM300000 26007KT P6SM BKN250=



000
FTUS41 KGYX 290339 AAB
TAFCON
TAF AMD
KCON 290339Z 2904/2924 10004KT 6SM BR OVC004
     FM290800 00000KT 1/4SM FG OVC001
     FM291330 25002KT 5SM BR OVC015
     FM291500 28004KT P6SM OVC050=



000
FTUS41 KGYX 290339 AAB
TAFPSM
TAF AMD
KPSM 290339Z 2904/2924 34004KT 1/2SM FG VV002
     FM291300 25006KT 5SM BR OVC007
     FM291500 27007KT P6SM OVC035=



000
FTUS41 KGYX 290338 AAB
TAFPWM
TAF AMD
KPWM 290338Z 2904/2924 VRB04KT P6SM OVC009
     FM290600 21004KT 4SM BR OVC007
     FM290800 23004KT 1/4SM FG OVC001
     FM291300 24004KT 2SM BR OVC004
     FM291500 23006KT P6SM BKN025=



000
FTUS41 KGYX 290202 AAA
TAFAUG
TAF AMD
KAUG 290202Z 2902/2924 VRB04KT 6SM BR OVC015
     FM290700 00000KT 1/4SM FG OVC002
     FM291300 21002KT 3SM BR OVC007
     FM291500 21003KT P6SM BKN035=



000
FTUS41 KGYX 290201 AAA
TAFCON
TAF AMD
KCON 290201Z 2902/2924 10004KT 6SM BR OVC006
     FM290800 00000KT 1/4SM FG OVC001
     FM291330 25002KT 5SM BR OVC015
     FM291500 28004KT P6SM OVC050=



000
FTUS41 KGYX 290141 AAA
TAFPSM
TAF AMD
KPSM 290141Z 2902/2924 05004KT 6SM BR BKN005
     FM290800 VRB04KT 1/2SM FG OVC002
     FM291300 25006KT 5SM BR OVC007
     FM291500 27007KT P6SM OVC035=



000
FTUS41 KGYX 290141 AAA
TAFPSM
TAF AMD
KPSM 290141Z 2902/2924 05004KT 6SM BR BKN005
     FM290800 VRB04KT 1/2SM FG OVC002
     FM291300 25006KT 5SM BR OVC007
     FM291500 27007KT P6SM OVC035=



000
FTUS41 KGYX 290004 AAA
TAFPWM
TAF AMD
KPWM 290004Z 2900/2924 VRB04KT P6SM OVC015
     FM290600 21004KT 2SM BR OVC007
     FM291000 23004KT 1/4SM FG OVC001
     FM291300 24004KT 2SM BR OVC004
     FM291500 23006KT P6SM BKN025=



000
FTUS41 KGYX 282320
TAFPWM
TAF
KPWM 282320Z 2900/2924 10005KT P6SM SCT015 BKN060
     FM290200 16005KT P6SM OVC015
     FM290600 21004KT 2SM BR OVC007
     FM291000 23004KT 1/4SM FG OVC001
     FM291300 24004KT 2SM BR OVC004
     FM291500 23006KT P6SM BKN025=



000
FTUS41 KGYX 282320
TAFAUG
TAF
KAUG 282320Z 2900/2924 VRB03KT P6SM OVC025
     FM290300 10004KT 4SM BR OVC015
     FM290900 00000KT 1/4SM FG OVC002
     FM291300 21002KT 3SM BR OVC007
     FM291500 21003KT P6SM BKN035=



000
FTUS41 KGYX 282320
TAFPSM
TAF
KPSM 282320Z 2900/2924 05004KT P6SM OVC250
     FM290400 13004KT 6SM BR OVC025
     FM290800 VRB04KT 1/2SM FG OVC002
     FM291300 25006KT 5SM BR OVC007
     FM291500 27007KT P6SM OVC035=



000
FTUS41 KGYX 282320
TAFLEB
TAF
KLEB 282320Z 2900/2924 VRB03KT P6SM OVC250
     FM290500 00000KT 4SM BR OVC025
     FM290600 17002KT 1/2SM FG OVC003
     FM290700 00000KT 1/4SM FG OVC001
     FM291400 23004KT P6SM OVC050=



000
FTUS41 KGYX 282320
TAFCON
TAF
KCON 282320Z 2900/2924 10004KT P6SM OVC250
     FM290600 00000KT 4SM BR OVC025
     FM290800 00000KT 1/4SM FG OVC001
     FM291330 25002KT 5SM BR OVC015
     FM291500 28004KT P6SM OVC050=



000
FTUS41 KGYX 282109 AAA
TAFPWM
TAF AMD
KPWM 282109Z 2821/2918 13007KT P6SM BKN030
     FM290400 19004KT 5SM -DZ BR OVC007
     FM290800 20005KT 1/2SM FG VV002
     FM291400 24005KT P6SM OVC015=



000
FTUS41 KGYX 281727
TAFPWM
TAF
KPWM 281727Z 2818/2918 16007KT P6SM FEW050 BKN100
     FM290400 19004KT 5SM -DZ BR OVC007
     FM290800 20005KT 1/2SM FG VV002
     FM291400 24005KT P6SM OVC015=



000
FTUS41 KGYX 281727
TAFLEB
TAF
KLEB 281727Z 2818/2918 17005KT P6SM FEW050 BKN100
     FM290200 00000KT 1/4SM FG OVC001
     FM291400 24003KT 4SM BR OVC001
     FM291500 25004KT P6SM OVC050=



000
FTUS41 KGYX 281727
TAFPSM
TAF
KPSM 281727Z 2818/2918 12007KT P6SM FEW050 BKN100
     FM290600 19004KT P6SM BKN015
     FM291200 21005KT 1SM BR OVC006
     FM291500 24006KT P6SM OVC015=



000
FTUS41 KGYX 281727
TAFCON
TAF
KCON 281727Z 2818/2918 14004KT P6SM FEW050 BKN100
     FM290300 00000KT 5SM BR FEW050
     FM290800 00000KT 1/2SM FG OVC005
     FM291500 26004KT P6SM OVC025=



000
FTUS41 KGYX 281727
TAFAUG
TAF
KAUG 281727Z 2818/2918 15005KT P6SM FEW050 BKN100
     FM290400 13004KT 5SM BR OVC019
     FM290700 VRB03KT 1/4SM FG OVC001
     FM291600 24005KT P6SM OVC015=



000
FTUS41 KGYX 281125
TAFPWM
TAF
KPWM 281125Z 2812/2912 16007KT P6SM FEW050 BKN100
     FM290400 19004KT P6SM BKN015
     FM290800 20005KT 1/2SM FG VV002=



000
FTUS41 KGYX 281125
TAFAUG
TAF
KAUG 281125Z 2812/2912 27005KT P6SM -SHRA BKN100
     FM281500 15005KT P6SM FEW050 BKN100
     FM290700 18004KT 1/2SM FG VV002=



000
FTUS41 KGYX 281125
TAFCON
TAF
KCON 281125Z 2812/2912 00000KT P6SM -SHRA BKN100
     FM281300 14004KT P6SM FEW050 BKN100=



000
FTUS41 KGYX 281125
TAFPSM
TAF
KPSM 281125Z 2812/2912 12007KT P6SM FEW050 BKN100
     FM290600 19004KT P6SM BKN015=



000
FTUS41 KGYX 281125
TAFLEB
TAF
KLEB 281125Z 2812/2912 00000KT P6SM -SHRA BKN100
     FM281600 17005KT P6SM FEW050 BKN100=



000
FTUS41 KGYX 280748 AAA
TAFLEB
TAF AMD
KLEB 280748Z 2808/2906 00000KT P6SM FEW001 BKN100
     FM281600 17005KT P6SM FEW050 BKN100=



    US Dept of Commerce
    National Oceanic and Atmospheric Administration
    National Weather Service
    1325 East West Highway
    Silver Spring, MD 20910
    Page Author: NWS Internet Services Team
Disclaimer
Information Quality
Credits
Glossary
Privacy Policy
Freedom of Information Act (FOIA)
About Us
Career Opportunities